Time;durP1;ratioP1;P1;durP2;ratioP2;P2;SDS_P1;SDS_P2;PMS_P1;PMS_P2;Temp;Humidity;BMP_temperature;BMP_pressure;BME280_temperature;BME280_humidity;BME280_pressure;Samples;Min_cycle;Max_cycle;Signal;HPM_P1;HPM_P2
2023/06/05 00:01:04;;;;;;;2.55;2.20;;;16.90;53.50;;;;;;5033183;28;20060;-56
2023/06/05 00:03:30;;;;;;;2.05;1.80;;;16.90;54.50;;;;;;5033419;28;20021;-57
2023/06/05 00:05:55;;;;;;;1.92;1.73;;;16.80;55.40;;;;;;5033379;28;20022;-57
2023/06/05 00:08:21;;;;;;;2.38;1.73;;;16.80;56.10;;;;;;5032514;28;20026;-57
2023/06/05 00:10:47;;;;;;;1.70;1.60;;;16.80;56.40;;;;;;5032949;28;20044;-58
2023/06/05 00:13:12;;;;;;;2.03;1.70;;;16.80;56.10;;;;;;5033385;28;20045;-58
2023/06/05 00:15:38;;;;;;;1.95;1.85;;;16.80;56.20;;;;;;5033117;28;20033;-58
2023/06/05 00:18:04;;;;;;;1.80;1.70;;;16.80;56.30;;;;;;5033134;28;20072;-56
2023/06/05 00:20:29;;;;;;;2.13;1.40;;;16.80;56.60;;;;;;5033002;28;20021;-57
2023/06/05 00:22:55;;;;;;;1.75;1.65;;;16.80;56.90;;;;;;5033014;28;20151;-58
2023/06/05 00:25:21;;;;;;;2.47;1.95;;;16.80;56.90;;;;;;5033137;28;20044;-58
2023/06/05 00:27:47;;;;;;;1.73;1.63;;;16.80;57.00;;;;;;5033265;28;20032;-58
2023/06/05 00:30:13;;;;;;;2.05;1.80;;;16.80;56.90;;;;;;5032633;28;20033;-57
2023/06/05 00:32:39;;;;;;;2.20;1.98;;;16.70;57.00;;;;;;5032104;28;20043;-58
2023/06/05 00:35:07;;;;;;;1.92;1.58;;;16.70;57.20;;;;;;5031853;28;20026;-57
2023/06/05 00:37:37;;;;;;;2.55;1.85;;;16.70;57.30;;;;;;5032000;28;20045;-58
2023/06/05 00:40:04;;;;;;;2.17;1.80;;;16.60;57.20;;;;;;5031570;28;20029;-58
2023/06/05 00:42:29;;;;;;;2.10;1.90;;;16.60;57.40;;;;;;5031496;28;20029;-58
2023/06/05 00:44:55;;;;;;;4.38;1.90;;;16.50;57.20;;;;;;5031708;28;20560;-56
2023/06/05 00:47:21;;;;;;;1.75;1.65;;;16.50;57.30;;;;;;5032736;28;20037;-56
2023/06/05 00:49:47;;;;;;;2.33;1.73;;;16.40;57.40;;;;;;5032735;28;20032;-58
2023/06/05 00:52:14;;;;;;;1.92;1.80;;;16.40;57.80;;;;;;5032473;28;20025;-58
2023/06/05 00:54:41;;;;;;;2.47;1.77;;;16.30;58.00;;;;;;5032827;28;20052;-58
2023/06/05 00:57:07;;;;;;;2.38;1.80;;;16.30;58.30;;;;;;5032389;28;20109;-57
2023/06/05 00:59:34;;;;;;;1.75;1.63;;;16.30;58.40;;;;;;5032463;28;20029;-58
2023/06/05 01:02:02;;;;;;;1.65;1.55;;;16.30;58.50;;;;;;5032228;28;20535;-57
2023/06/05 01:04:28;;;;;;;1.83;1.70;;;16.20;58.50;;;;;;5032596;28;20022;-58
2023/06/05 01:06:57;;;;;;;2.03;1.90;;;16.20;58.60;;;;;;5032559;28;20022;-58
2023/06/05 01:09:24;;;;;;;2.38;1.92;;;16.20;58.80;;;;;;5032555;28;20086;-58
2023/06/05 01:12:10;;;;;;;2.58;1.75;;;16.20;59.40;;;;;;5032182;28;20388;-58
2023/06/05 01:14:38;;;;;;;1.67;1.58;;;16.20;58.90;;;;;;5031680;28;20541;-55
2023/06/05 01:17:08;;;;;;;1.80;1.70;;;16.10;58.90;;;;;;5032216;28;20427;-55
2023/06/05 01:19:34;;;;;;;2.38;2.00;;;16.10;59.00;;;;;;5032240;28;20026;-57
2023/06/05 01:22:01;;;;;;;1.85;1.73;;;16.10;59.60;;;;;;5031105;28;20029;-58
2023/06/05 01:24:27;;;;;;;2.15;1.80;;;16.10;59.10;;;;;;5031866;28;20025;-57
2023/06/05 01:27:15;;;;;;;1.85;1.45;;;16.10;59.30;;;;;;5032215;28;20496;-58
2023/06/05 01:29:53;;;;;;;1.80;1.70;;;16.10;60.00;;;;;;5032010;28;20534;-57
2023/06/05 01:32:31;;;;;;;2.22;1.70;;;16.00;59.50;;;;;;5032046;28;20041;-58
2023/06/05 01:34:59;;;;;;;3.65;2.20;;;16.00;59.60;;;;;;5032144;28;20132;-58
2023/06/05 01:37:26;;;;;;;2.25;2.05;;;16.00;59.60;;;;;;5032021;28;20029;-56
2023/06/05 01:39:54;;;;;;;2.03;1.83;;;15.90;59.60;;;;;;5031852;28;20033;-54
2023/06/05 01:42:20;;;;;;;3.38;2.05;;;15.90;59.60;;;;;;5031614;28;20025;-56
2023/06/05 01:44:47;;;;;;;3.38;2.10;;;15.80;59.50;;;;;;5030188;28;20033;-56
2023/06/05 01:47:13;;;;;;;4.70;1.90;;;15.80;59.40;;;;;;5030891;28;20025;-58
2023/06/05 01:49:39;;;;;;;2.42;2.22;;;15.70;59.50;;;;;;5031647;28;20026;-58
2023/06/05 01:52:05;;;;;;;2.40;1.75;;;15.70;59.60;;;;;;5031831;28;20423;-58
2023/06/05 01:54:33;;;;;;;1.90;1.80;;;15.70;59.80;;;;;;5031840;28;20033;-56
2023/06/05 01:57:00;;;;;;;2.47;2.13;;;15.60;59.90;;;;;;5031607;28;20026;-56
2023/06/05 01:59:25;;;;;;;2.67;2.35;;;15.50;59.80;;;;;;5031735;28;20053;-58
2023/06/05 02:01:51;;;;;;;2.40;2.05;;;15.60;59.90;;;;;;5031045;28;20073;-57
2023/06/05 02:04:18;;;;;;;2.78;2.05;;;15.60;59.80;;;;;;5031351;28;20071;-58
2023/06/05 02:06:45;;;;;;;3.05;2.05;;;15.60;59.90;;;;;;5031518;28;20026;-58
2023/06/05 02:09:10;;;;;;;5.13;2.47;;;15.60;60.70;;;;;;5031485;28;20638;-58
2023/06/05 02:11:39;;;;;;;2.95;2.35;;;15.70;60.10;;;;;;5031340;28;20029;-58
2023/06/05 02:14:12;;;;;;;3.85;2.67;;;15.70;60.00;;;;;;5031405;28;20036;-58
2023/06/05 02:16:39;;;;;;;3.38;2.17;;;15.70;60.00;;;;;;5031456;28;20473;-58
2023/06/05 02:19:06;;;;;;;3.78;2.72;;;15.80;60.10;;;;;;5030808;28;20108;-58
2023/06/05 02:21:33;;;;;;;3.17;2.38;;;15.80;60.20;;;;;;5030764;28;20030;-58
2023/06/05 02:24:00;;;;;;;5.00;2.88;;;15.90;59.40;;;;;;5031417;28;20456;-57
2023/06/05 02:26:26;;;;;;;5.38;3.22;;;15.90;58.60;;;;;;5031064;28;20103;-58
2023/06/05 02:28:53;;;;;;;4.50;2.85;;;16.00;58.20;;;;;;5031260;28;20022;-58
2023/06/05 02:31:24;;;;;;;6.43;3.22;;;16.00;58.00;;;;;;5031329;28;20034;-58
2023/06/05 02:33:51;;;;;;;5.57;3.40;;;16.10;57.80;;;;;;5032903;28;20029;-58
2023/06/05 02:36:16;;;;;;;15.48;3.63;;;16.20;58.10;;;;;;5035321;28;20064;-58
2023/06/05 02:38:42;;;;;;;7.28;3.78;;;16.20;57.20;;;;;;5035609;28;20045;-58
2023/06/05 02:41:09;;;;;;;9.73;4.50;;;16.30;57.10;;;;;;5035273;28;20442;-56
2023/06/05 02:43:34;;;;;;;7.25;4.40;;;16.30;57.00;;;;;;5035229;28;20021;-58
2023/06/05 02:46:00;;;;;;;7.38;3.90;;;16.40;56.90;;;;;;5034885;28;20104;-57
2023/06/05 02:48:26;;;;;;;7.32;3.83;;;16.40;56.90;;;;;;5035002;28;20026;-55
2023/06/05 02:50:51;;;;;;;7.57;3.85;;;16.50;56.80;;;;;;5034604;28;20523;-56
2023/06/05 02:53:18;;;;;;;5.63;3.75;;;16.50;56.70;;;;;;5034161;28;20029;-59
2023/06/05 02:55:43;;;;;;;8.80;3.80;;;16.60;57.10;;;;;;5034777;28;20044;-58
2023/06/05 02:58:12;;;;;;;8.30;4.43;;;16.60;57.50;;;;;;5034497;28;20029;-57
2023/06/05 03:00:38;;;;;;;8.68;4.53;;;16.70;57.60;;;;;;5034774;28;20068;-58
2023/06/05 03:03:06;;;;;;;8.57;5.50;;;16.70;57.40;;;;;;5034841;28;20507;-56
2023/06/05 03:05:33;;;;;;;8.45;5.85;;;16.70;57.40;;;;;;5034779;28;20032;-57
2023/06/05 03:08:01;;;;;;;8.95;6.00;;;16.80;57.30;;;;;;5034591;28;20040;-54
2023/06/05 03:10:27;;;;;;;12.02;8.70;;;16.90;57.10;;;;;;5034490;28;20021;-57
2023/06/05 03:12:53;;;;;;;10.73;7.00;;;16.90;56.80;;;;;;5034490;28;20033;-56
2023/06/05 03:15:19;;;;;;;9.88;6.45;;;17.00;56.50;;;;;;5034127;28;20052;-56
2023/06/05 03:17:45;;;;;;;14.18;6.78;;;17.10;56.20;;;;;;5032865;28;20084;-57
2023/06/05 03:20:12;;;;;;;9.20;6.40;;;17.10;56.00;;;;;;5034421;28;20436;-58
2023/06/05 03:22:38;;;;;;;9.98;6.15;;;17.20;55.90;;;;;;5034133;28;20037;-58
2023/06/05 03:25:05;;;;;;;7.80;6.28;;;17.30;55.70;;;;;;5033819;28;20030;-54
2023/06/05 03:27:31;;;;;;;10.10;5.88;;;17.40;55.80;;;;;;5033508;28;20033;-55
2023/06/05 03:29:58;;;;;;;9.20;5.85;;;17.60;56.10;;;;;;5033931;28;20026;-58
2023/06/05 03:32:24;;;;;;;8.05;5.50;;;17.90;56.90;;;;;;5033922;28;20033;-58
2023/06/05 03:34:50;;;;;;;7.82;5.10;;;18.30;56.90;;;;;;5033948;28;20035;-57
2023/06/05 03:37:16;;;;;;;8.77;5.00;;;18.70;56.30;;;;;;5033723;28;20104;-58
2023/06/05 03:39:42;;;;;;;7.68;5.15;;;19.20;55.20;;;;;;5034014;28;20053;-59
2023/06/05 03:42:10;;;;;;;7.93;5.15;;;19.80;54.10;;;;;;5014766;28;20682;-58
2023/06/05 03:44:37;;;;;;;8.98;4.65;;;20.50;53.10;;;;;;5031747;28;20061;-55
2023/06/05 03:47:04;;;;;;;9.02;4.50;;;21.40;51.70;;;;;;5032422;28;20033;-56
2023/06/05 03:49:29;;;;;;;7.95;4.70;;;22.40;50.30;;;;;;5033721;28;20033;-59
2023/06/05 03:52:00;;;;;;;7.78;4.20;;;23.30;48.80;;;;;;5033631;28;20105;-59
2023/06/05 03:54:27;;;;;;;6.00;3.75;;;24.30;47.40;;;;;;5033780;28;20033;-59
2023/06/05 03:56:55;;;;;;;5.25;3.63;;;25.30;46.20;;;;;;5032051;28;20022;-59
2023/06/05 03:59:23;;;;;;;8.10;3.92;;;26.20;45.20;;;;;;5033183;28;20031;-58
2023/06/05 04:01:50;;;;;;;6.00;3.47;;;27.10;44.10;;;;;;5032932;28;20046;-59
2023/06/05 04:04:16;;;;;;;7.07;3.75;;;27.90;43.10;;;;;;5033024;28;20531;-58
2023/06/05 04:06:43;;;;;;;6.03;3.55;;;28.70;42.10;;;;;;5031694;28;20025;-57
2023/06/05 04:09:11;;;;;;;6.53;3.67;;;29.40;41.30;;;;;;5031513;28;20108;-58
2023/06/05 04:11:42;;;;;;;5.13;3.08;;;30.10;40.50;;;;;;5031659;28;20025;-58
2023/06/05 04:14:08;;;;;;;6.68;3.60;;;30.90;39.50;;;;;;5031511;28;20037;-54
2023/06/05 04:16:38;;;;;;;4.25;3.00;;;31.50;38.40;;;;;;5031422;28;20537;-57
2023/06/05 04:19:06;;;;;;;5.82;3.00;;;32.00;37.50;;;;;;5031364;28;20029;-58
2023/06/05 04:21:34;;;;;;;5.65;2.67;;;32.50;37.10;;;;;;5031549;28;20079;-58
2023/06/05 04:23:59;;;;;;;5.22;3.15;;;33.00;36.60;;;;;;5033269;28;20539;-58
2023/06/05 04:26:26;;;;;;;4.35;2.80;;;33.40;36.10;;;;;;5032125;28;20021;-56
2023/06/05 04:28:52;;;;;;;6.07;3.13;;;33.80;35.70;;;;;;5030971;28;20029;-59
2023/06/05 04:31:17;;;;;;;6.47;3.33;;;34.20;35.30;;;;;;5030885;28;20025;-56
2023/06/05 04:33:43;;;;;;;4.43;2.97;;;34.60;35.10;;;;;;5030368;28;20022;-59
2023/06/05 04:36:09;;;;;;;5.18;3.30;;;34.90;34.80;;;;;;5031359;28;20022;-57
2023/06/05 04:38:37;;;;;;;8.57;3.35;;;35.30;34.60;;;;;;5031274;28;20479;-58
2023/06/05 04:41:02;;;;;;;6.75;5.10;;;35.60;34.20;;;;;;5031257;28;20495;-59
2023/06/05 04:43:28;;;;;;;8.85;5.13;;;36.00;33.90;;;;;;5032665;28;20022;-58
2023/06/05 04:45:54;;;;;;;7.28;4.70;;;36.30;33.80;;;;;;5032699;28;20026;-59
2023/06/05 04:48:20;;;;;;;7.15;4.75;;;36.60;33.60;;;;;;5032921;28;20033;-59
2023/06/05 04:50:45;;;;;;;7.22;4.93;;;36.70;33.40;;;;;;5032547;28;20400;-59
2023/06/05 04:53:11;;;;;;;5.97;4.40;;;36.80;33.00;;;;;;5032700;28;20026;-57
2023/06/05 04:55:36;;;;;;;6.43;4.05;;;36.90;32.80;;;;;;5032948;28;20469;-58
2023/06/05 04:58:02;;;;;;;6.38;4.05;;;37.00;32.70;;;;;;5032709;28;20518;-59
2023/06/05 05:00:28;;;;;;;4.82;3.22;;;37.20;32.30;;;;;;5032536;28;20064;-59
2023/06/05 05:02:56;;;;;;;4.40;3.30;;;37.40;32.00;;;;;;5032294;28;20432;-59
2023/06/05 05:05:22;;;;;;;5.03;2.92;;;37.60;31.60;;;;;;5031844;28;20064;-57
2023/06/05 05:07:48;;;;;;;6.10;2.85;;;37.80;31.50;;;;;;5032019;28;20072;-58
2023/06/05 05:10:14;;;;;;;4.85;3.08;;;37.90;31.40;;;;;;5029498;28;20393;-58
2023/06/05 05:12:40;;;;;;;6.28;2.67;;;38.10;31.40;;;;;;5030446;28;20106;-56
2023/06/05 05:15:06;;;;;;;4.47;2.67;;;38.20;31.00;;;;;;5030932;28;20114;-58
2023/06/05 05:17:31;;;;;;;3.45;2.47;;;38.30;30.60;;;;;;5032021;28;20032;-59
2023/06/05 05:19:57;;;;;;;3.60;2.40;;;38.30;30.20;;;;;;5031933;28;20026;-59
2023/06/05 05:22:25;;;;;;;2.35;1.90;;;38.20;30.00;;;;;;5032169;28;20104;-58
2023/06/05 05:24:50;;;;;;;3.88;1.80;;;37.70;30.00;;;;;;5032241;28;20025;-59
2023/06/05 05:27:16;;;;;;;2.90;1.88;;;36.90;30.20;;;;;;5031833;28;20072;-58
2023/06/05 05:29:42;;;;;;;3.10;2.17;;;35.90;30.40;;;;;;5030052;28;20025;-58
2023/06/05 05:32:07;;;;;;;4.88;2.30;;;34.90;30.80;;;;;;5029211;28;20029;-58
2023/06/05 05:34:33;;;;;;;4.43;2.30;;;33.90;31.20;;;;;;5030696;28;20411;-56
2023/06/05 05:36:59;;;;;;;3.35;2.30;;;32.90;31.50;;;;;;5031057;28;20026;-58
2023/06/05 05:39:25;;;;;;;4.88;1.98;;;32.10;31.60;;;;;;5029180;28;20029;-56
2023/06/05 05:41:50;;;;;;;4.22;1.80;;;31.40;31.80;;;;;;5030921;28;20065;-58
2023/06/05 05:44:16;;;;;;;2.20;1.90;;;30.80;32.10;;;;;;5030739;28;20030;-57
2023/06/05 05:46:42;;;;;;;5.20;2.58;;;30.20;32.40;;;;;;5030921;28;20025;-59
2023/06/05 05:49:07;;;;;;;4.13;1.90;;;29.70;32.60;;;;;;5031456;28;20040;-58
2023/06/05 05:51:33;;;;;;;2.55;2.05;;;29.30;33.20;;;;;;5031760;28;20037;-58
2023/06/05 05:54:00;;;;;;;2.05;1.85;;;28.90;33.50;;;;;;5030997;28;20029;-59
2023/06/05 05:56:27;;;;;;;3.60;1.48;;;28.50;33.60;;;;;;5031522;28;20032;-59
2023/06/05 05:58:52;;;;;;;3.22;1.50;;;28.20;33.60;;;;;;5031004;28;20041;-57
2023/06/05 06:01:18;;;;;;;1.92;1.52;;;27.90;33.70;;;;;;5029519;28;20056;-55
2023/06/05 06:03:44;;;;;;;1.65;1.20;;;27.70;33.90;;;;;;5029350;28;20511;-59
2023/06/05 06:06:10;;;;;;;2.72;1.40;;;27.50;34.20;;;;;;5029588;28;20485;-58
2023/06/05 06:08:35;;;;;;;2.85;1.50;;;27.20;34.00;;;;;;5029384;28;20427;-56
2023/06/05 06:11:03;;;;;;;1.48;1.13;;;27.00;33.90;;;;;;5028830;28;20017;-57
2023/06/05 06:13:29;;;;;;;1.25;1.13;;;26.80;34.10;;;;;;5029498;28;20033;-55
2023/06/05 06:15:55;;;;;;;1.60;1.50;;;26.70;34.40;;;;;;5030893;28;20028;-59
2023/06/05 06:18:20;;;;;;;2.03;1.58;;;26.50;34.60;;;;;;5027149;28;20491;-60
2023/06/05 06:20:47;;;;;;;2.58;1.25;;;26.40;34.90;;;;;;5020338;28;20057;-58
2023/06/05 06:23:12;;;;;;;1.92;1.50;;;26.30;35.30;;;;;;5024522;28;20057;-60
2023/06/05 06:25:39;;;;;;;3.83;1.90;;;26.20;35.00;;;;;;5024345;28;20493;-60
2023/06/05 06:28:05;;;;;;;2.97;1.92;;;26.10;35.00;;;;;;5022793;28;20091;-58
2023/06/05 06:30:31;;;;;;;3.38;1.80;;;26.00;34.80;;;;;;5016126;28;20501;-59
2023/06/05 06:33:00;;;;;;;2.55;1.60;;;25.80;35.10;;;;;;5015352;28;20051;-60
2023/06/05 06:35:26;;;;;;;2.67;1.70;;;25.70;35.30;;;;;;5024687;28;20049;-59
2023/06/05 06:37:54;;;;;;;1.60;1.33;;;25.60;35.60;;;;;;5016905;28;20029;-56
2023/06/05 06:40:21;;;;;;;1.92;1.38;;;25.50;35.90;;;;;;5023970;28;20041;-58
2023/06/05 06:42:46;;;;;;;1.55;1.45;;;25.40;36.00;;;;;;5025189;28;20033;-60
2023/06/05 06:45:12;;;;;;;1.98;1.48;;;25.30;36.10;;;;;;5026767;28;20428;-53
2023/06/05 06:47:41;;;;;;;1.60;1.48;;;25.20;36.30;;;;;;5015137;28;20393;-59
2023/06/05 06:50:07;;;;;;;1.40;1.30;;;25.20;36.50;;;;;;5020985;28;20405;-57
2023/06/05 06:52:33;;;;;;;2.22;1.25;;;25.20;36.60;;;;;;5016145;28;20033;-53
2023/06/05 06:54:58;;;;;;;1.38;1.17;;;25.00;36.40;;;;;;5047402;28;20083;-57
2023/06/05 06:57:24;;;;;;;1.15;1.13;;;25.00;37.00;;;;;;5024006;28;20080;-55
2023/06/05 06:59:50;;;;;;;1.20;1.10;;;25.00;37.40;;;;;;5024387;28;20113;-60
2023/06/05 07:02:19;;;;;;;1.48;1.33;;;25.00;37.80;;;;;;5022777;28;20503;-59
2023/06/05 07:04:46;;;;;;;1.10;0.97;;;25.00;37.90;;;;;;5030159;28;20036;-59
2023/06/05 07:07:14;;;;;;;1.63;1.08;;;24.90;38.50;;;;;;5015687;28;20443;-59
2023/06/05 07:09:41;;;;;;;0.80;0.80;;;24.80;39.50;;;;;;5028196;28;20468;-59
2023/06/05 07:12:19;;;;;;;1.52;1.13;;;24.80;39.90;;;;;;5024319;28;20033;-57
2023/06/05 07:14:45;;;;;;;1.83;1.17;;;24.80;39.80;;;;;;5027078;28;20574;-59
2023/06/05 07:17:11;;;;;;;2.80;1.02;;;24.70;39.90;;;;;;5024386;28;20482;-59
2023/06/05 07:19:36;;;;;;;1.85;1.10;;;24.70;40.30;;;;;;5030851;28;20103;-59
2023/06/05 07:22:06;;;;;;;1.25;1.15;;;24.70;40.30;;;;;;5032263;28;20065;-58
2023/06/05 07:24:35;;;;;;;2.95;1.20;;;24.60;40.20;;;;;;5031444;28;20018;-59
2023/06/05 07:27:05;;;;;;;2.72;1.20;;;24.60;40.00;;;;;;5019797;28;20044;-58
2023/06/05 07:29:31;;;;;;;1.13;0.95;;;24.60;39.70;;;;;;5023014;28;20104;-59
2023/06/05 07:31:58;;;;;;;1.58;1.27;;;24.50;39.70;;;;;;5025386;28;20029;-59
2023/06/05 07:34:25;;;;;;;1.27;1.20;;;24.50;40.10;;;;;;5022021;28;20025;-59
2023/06/05 07:36:51;;;;;;;2.75;1.48;;;24.40;39.70;;;;;;5024625;28;20484;-57
2023/06/05 07:39:19;;;;;;;1.55;1.25;;;24.40;39.50;;;;;;5023293;28;20038;-56
2023/06/05 07:41:44;;;;;;;2.25;1.15;;;24.40;39.70;;;;;;5028653;28;20477;-58
2023/06/05 07:44:11;;;;;;;1.02;0.93;;;24.40;39.90;;;;;;5027895;28;20049;-57
2023/06/05 07:46:40;;;;;;;0.98;0.93;;;24.40;40.30;;;;;;5028019;28;20372;-57
2023/06/05 07:49:06;;;;;;;1.98;1.50;;;24.40;40.40;;;;;;5025207;28;20060;-57
2023/06/05 07:51:35;;;;;;;1.58;1.20;;;24.40;40.40;;;;;;5027758;28;20025;-57
2023/06/05 07:54:03;;;;;;;1.75;1.20;;;24.30;40.60;;;;;;5022276;28;20033;-58
2023/06/05 07:56:28;;;;;;;1.48;1.33;;;24.30;41.00;;;;;;5029270;28;20119;-58
2023/06/05 07:58:54;;;;;;;1.85;1.15;;;24.30;40.70;;;;;;5026873;28;20116;-57
2023/06/05 08:01:21;;;;;;;1.77;1.55;;;24.30;40.90;;;;;;5024812;28;20159;-57
2023/06/05 08:03:46;;;;;;;3.33;1.08;;;24.20;41.00;;;;;;5030616;28;20087;-56
2023/06/05 08:06:12;;;;;;;1.00;1.00;;;24.20;40.90;;;;;;5026260;28;20037;-58
2023/06/05 08:08:38;;;;;;;1.33;1.17;;;24.10;41.30;;;;;;5030716;28;20033;-59
2023/06/05 08:11:03;;;;;;;4.72;1.40;;;24.10;41.60;;;;;;5022609;28;20192;-58
2023/06/05 08:13:29;;;;;;;1.65;1.10;;;24.10;41.90;;;;;;5022662;28;20029;-56
2023/06/05 08:15:55;;;;;;;1.38;1.20;;;24.10;42.10;;;;;;5021601;28;20021;-57
2023/06/05 08:18:21;;;;;;;1.17;1.08;;;24.00;42.00;;;;;;5025228;28;20032;-58
2023/06/05 08:20:47;;;;;;;1.40;1.30;;;24.00;42.10;;;;;;5025530;28;20049;-57
2023/06/05 08:23:13;;;;;;;1.20;1.10;;;24.00;42.50;;;;;;5031950;28;20026;-59
2023/06/05 08:25:39;;;;;;;2.88;1.05;;;24.00;42.40;;;;;;5022689;28;20088;-59
2023/06/05 08:28:04;;;;;;;2.50;0.90;;;23.90;42.50;;;;;;5025776;28;20053;-59
2023/06/05 08:30:30;;;;;;;1.33;1.05;;;23.90;42.60;;;;;;5024865;28;20056;-59
2023/06/05 08:32:55;;;;;;;1.00;0.95;;;23.80;41.90;;;;;;5024639;28;20042;-56
2023/06/05 08:35:21;;;;;;;2.28;1.10;;;23.70;41.80;;;;;;5030145;28;20034;-58
2023/06/05 08:37:47;;;;;;;2.65;1.40;;;23.70;41.60;;;;;;5025473;28;20041;-57
2023/06/05 08:40:14;;;;;;;1.38;1.30;;;23.70;41.50;;;;;;5032524;28;20049;-59
2023/06/05 08:42:41;;;;;;;2.28;1.20;;;23.60;41.00;;;;;;5030626;28;20040;-57
2023/06/05 08:45:08;;;;;;;1.88;1.33;;;23.60;40.80;;;;;;5020525;28;20454;-58
2023/06/05 08:47:37;;;;;;;1.40;1.30;;;23.50;40.60;;;;;;5024281;28;20659;-59
2023/06/05 08:50:06;;;;;;;1.70;1.52;;;23.50;40.90;;;;;;5031600;28;20018;-59
2023/06/05 08:52:37;;;;;;;1.42;1.33;;;23.50;40.50;;;;;;5027286;28;20029;-58
2023/06/05 08:55:04;;;;;;;1.52;1.42;;;23.40;40.40;;;;;;5021160;28;20029;-59
2023/06/05 08:57:32;;;;;;;2.17;1.27;;;23.40;40.00;;;;;;5027074;28;20033;-58
2023/06/05 09:00:00;;;;;;;1.92;1.23;;;23.30;39.50;;;;;;5025172;28;20033;-57
2023/06/05 09:02:25;;;;;;;2.72;1.33;;;23.30;39.70;;;;;;5023422;28;20362;-56
2023/06/05 09:04:51;;;;;;;1.48;0.95;;;23.20;39.70;;;;;;5022334;28;20039;-60
2023/06/05 09:07:18;;;;;;;1.27;1.17;;;23.20;39.80;;;;;;5025556;28;20056;-58
2023/06/05 09:09:44;;;;;;;1.23;1.13;;;23.10;39.50;;;;;;5019912;28;20034;-59
2023/06/05 09:12:09;;;;;;;2.83;1.67;;;23.10;39.10;;;;;;5024715;28;20037;-58
2023/06/05 09:14:35;;;;;;;2.75;1.38;;;23.00;38.80;;;;;;5024097;28;20507;-59
2023/06/05 09:17:02;;;;;;;3.25;1.30;;;23.00;38.60;;;;;;5019348;28;20034;-58
2023/06/05 09:19:38;;;;;;;1.40;1.25;;;23.00;38.50;;;;;;5022052;28;20443;-57
2023/06/05 09:22:06;;;;;;;2.42;1.55;;;23.00;38.70;;;;;;5021544;28;20463;-58
2023/06/05 09:24:32;;;;;;;1.23;0.95;;;22.90;38.90;;;;;;5022525;28;20052;-56
2023/06/05 09:27:00;;;;;;;1.42;1.33;;;22.90;39.20;;;;;;5020846;28;20029;-56
2023/06/05 09:29:27;;;;;;;1.73;1.40;;;22.90;39.00;;;;;;5024342;28;20033;-57
2023/06/05 09:31:58;;;;;;;1.20;1.10;;;22.80;39.20;;;;;;5026150;28;20044;-58
2023/06/05 09:34:30;;;;;;;1.60;1.27;;;22.80;39.50;;;;;;5024797;28;20029;-57
2023/06/05 09:36:57;;;;;;;1.25;1.15;;;22.80;39.20;;;;;;5026105;28;20128;-58
2023/06/05 09:39:25;;;;;;;2.20;1.33;;;22.80;39.30;;;;;;5023315;28;20071;-56
2023/06/05 09:41:52;;;;;;;2.17;1.10;;;22.80;39.10;;;;;;5025876;28;20087;-58
2023/06/05 09:44:19;;;;;;;1.23;1.15;;;22.70;38.90;;;;;;5023420;28;20557;-58
2023/06/05 09:46:51;;;;;;;1.52;1.42;;;22.70;38.80;;;;;;5021490;28;20029;-58
2023/06/05 09:49:18;;;;;;;3.03;1.38;;;22.60;39.50;;;;;;5022649;28;20025;-58
2023/06/05 09:51:44;;;;;;;1.17;1.17;;;22.60;39.40;;;;;;5019157;28;20029;-57
2023/06/05 09:54:12;;;;;;;4.63;1.30;;;22.60;39.60;;;;;;5018827;28;20472;-54
2023/06/05 09:56:41;;;;;;;1.05;1.02;;;22.60;39.40;;;;;;5023817;28;20452;-58
2023/06/05 09:59:08;;;;;;;1.15;1.02;;;22.60;39.40;;;;;;5022506;28;20091;-58
2023/06/05 10:01:36;;;;;;;2.20;1.25;;;22.60;39.40;;;;;;5020161;28;20053;-55
2023/06/05 10:04:07;;;;;;;1.33;1.10;;;22.60;39.50;;;;;;5028723;28;20052;-58
2023/06/05 10:06:34;;;;;;;2.47;1.23;;;22.60;39.70;;;;;;5017892;28;20096;-58
2023/06/05 10:09:00;;;;;;;1.70;1.50;;;22.50;39.20;;;;;;5018217;28;20579;-55
2023/06/05 10:11:26;;;;;;;1.58;1.48;;;22.50;39.30;;;;;;5021517;28;20043;-57
2023/06/05 10:13:59;;;;;;;1.33;1.23;;;22.50;38.80;;;;;;5023388;28;20029;-57
2023/06/05 10:16:27;;;;;;;3.15;1.50;;;22.50;38.40;;;;;;5021187;28;20029;-57
2023/06/05 10:18:55;;;;;;;1.35;1.25;;;22.50;38.40;;;;;;5017220;28;20239;-58
2023/06/05 10:21:21;;;;;;;1.70;1.60;;;22.50;38.60;;;;;;5017289;28;20104;-58
2023/06/05 10:23:57;;;;;;;1.80;1.70;;;22.50;38.80;;;;;;5012729;28;20052;-56
2023/06/05 10:26:36;;;;;;;0.95;0.95;;;22.50;38.90;;;;;;5022503;28;20057;-58
2023/06/05 10:29:25;;;;;;;1.13;1.00;;;22.50;39.90;;;;;;5024470;28;20029;-56
2023/06/05 10:31:57;;;;;;;2.88;1.45;;;22.50;39.10;;;;;;5026537;28;20057;-58
2023/06/05 10:34:32;;;;;;;1.65;1.40;;;22.50;39.40;;;;;;5021630;28;20291;-57
2023/06/05 10:37:25;;;;;;;3.30;1.52;;;22.50;39.40;;;;;;5022756;28;20034;-56
2023/06/05 10:39:53;;;;;;;2.05;1.73;;;22.50;39.60;;;;;;5021264;28;20050;-57
2023/06/05 10:42:29;;;;;;;1.77;1.40;;;22.50;40.20;;;;;;5021304;28;20113;-59
2023/06/05 10:44:55;;;;;;;1.75;1.20;;;22.50;40.10;;;;;;5022927;28;20103;-57
2023/06/05 10:47:47;;;;;;;3.17;1.30;;;22.50;40.10;;;;;;5020449;28;20071;-57
2023/06/05 10:50:16;;;;;;;1.50;1.40;;;22.50;40.10;;;;;;5016642;28;20050;-58
2023/06/05 10:52:42;;;;;;;1.77;1.25;;;22.50;40.10;;;;;;5023662;28;20036;-57
2023/06/05 10:55:09;;;;;;;1.40;1.30;;;22.50;40.10;;;;;;5026330;28;20052;-58
2023/06/05 10:58:09;;;;;;;1.55;1.20;;;22.50;40.20;;;;;;5023862;28;20040;-52
2023/06/05 11:00:38;;;;;;;1.52;1.40;;;22.50;40.20;;;;;;5017284;28;20055;-55
2023/06/05 11:03:06;;;;;;;2.35;1.10;;;22.50;40.00;;;;;;5028101;28;20427;-57
2023/06/05 11:05:32;;;;;;;1.33;0.90;;;22.50;40.30;;;;;;5023960;28;20025;-57
2023/06/05 11:08:29;;;;;;;1.58;1.48;;;22.50;40.40;;;;;;5025989;28;20064;-58
2023/06/05 11:11:09;;;;;;;1.83;1.60;;;22.50;40.40;;;;;;5003283;28;20033;-58
2023/06/05 11:13:56;;;;;;;1.33;1.23;;;22.50;40.80;;;;;;5018623;28;20032;-54
2023/06/05 11:16:28;;;;;;;1.10;1.05;;;22.50;40.20;;;;;;5023453;28;20029;-57
2023/06/05 11:19:14;;;;;;;1.63;1.40;;;22.50;40.30;;;;;;5023586;28;20044;-58
2023/06/05 11:22:07;;;;;;;2.35;1.30;;;22.50;40.40;;;;;;5021358;28;20030;-55
2023/06/05 11:24:34;;;;;;;1.13;1.05;;;22.50;40.60;;;;;;5023522;28;20040;-58
2023/06/05 11:27:00;;;;;;;1.50;1.40;;;22.50;40.80;;;;;;5028255;28;20142;-58
2023/06/05 11:29:27;;;;;;;1.42;1.33;;;22.50;40.60;;;;;;5025846;28;20026;-57
2023/06/05 11:31:53;;;;;;;1.45;1.35;;;22.50;40.40;;;;;;5027903;28;20033;-57
2023/06/05 11:34:19;;;;;;;1.52;1.30;;;22.50;40.80;;;;;;5028240;28;20108;-58
2023/06/05 11:36:45;;;;;;;1.50;1.40;;;22.50;40.80;;;;;;5025840;28;20048;-57
2023/06/05 11:39:11;;;;;;;1.40;1.30;;;22.50;40.70;;;;;;5020621;28;20025;-55
2023/06/05 11:41:50;;;;;;;1.38;1.23;;;22.50;40.60;;;;;;5028231;28;20429;-58
2023/06/05 11:44:31;;;;;;;2.17;1.40;;;22.50;40.40;;;;;;5017270;28;20529;-56
2023/06/05 11:46:57;;;;;;;1.60;1.30;;;22.50;40.70;;;;;;5024579;28;20025;-55
2023/06/05 11:49:27;;;;;;;2.45;1.48;;;22.50;40.50;;;;;;5027428;28;20091;-58
2023/06/05 11:51:54;;;;;;;;;;;22.50;40.30;;;;;;5024323;28;20157;-58
2023/06/05 11:54:40;;;;;;;1.58;1.45;;;22.50;40.50;;;;;;5021661;28;19913;-58
2023/06/05 11:57:10;;;;;;;1.92;1.08;;;22.50;40.40;;;;;;5028208;28;20088;-56
2023/06/05 11:59:37;;;;;;;1.75;1.25;;;22.50;40.70;;;;;;5032146;28;20071;-57
2023/06/05 12:02:03;;;;;;;1.75;1.48;;;22.50;41.30;;;;;;5031128;28;20060;-58
2023/06/05 12:04:33;;;;;;;1.23;1.10;;;22.50;41.10;;;;;;5019137;28;20056;-58
2023/06/05 12:07:02;;;;;;;1.75;1.33;;;22.50;40.90;;;;;;5025807;28;20025;-58
2023/06/05 12:09:27;;;;;;;1.30;1.20;;;22.50;41.10;;;;;;5026034;28;20033;-58
2023/06/05 12:12:06;;;;;;;1.75;1.35;;;22.50;41.10;;;;;;5024862;28;20029;-54
2023/06/05 12:14:33;;;;;;;1.23;1.13;;;22.50;41.40;;;;;;5026518;28;20386;-55
2023/06/05 12:17:00;;;;;;;1.33;1.20;;;22.50;40.90;;;;;;5023487;28;20036;-58
2023/06/05 12:19:26;;;;;;;1.70;1.50;;;22.50;40.60;;;;;;5019878;28;20076;-56
2023/06/05 12:22:03;;;;;;;1.42;1.20;;;22.50;40.60;;;;;;5024627;28;20690;-55
2023/06/05 12:24:28;;;;;;;2.47;1.63;;;22.50;40.40;;;;;;5020509;28;20552;-55
2023/06/05 12:26:59;;;;;;;1.30;1.20;;;22.40;40.30;;;;;;5025796;28;20026;-56
2023/06/05 12:29:27;;;;;;;1.35;1.10;;;22.40;40.00;;;;;;5019163;28;20037;-58
2023/06/05 12:31:53;;;;;;;1.92;1.25;;;22.40;40.20;;;;;;5029961;28;20032;-57
2023/06/05 12:34:41;;;;;;;1.70;1.33;;;22.40;40.10;;;;;;5020477;28;20025;-56
2023/06/05 12:37:08;;;;;;;1.50;1.40;;;22.40;40.10;;;;;;5022639;28;20037;-57
2023/06/05 12:39:35;;;;;;;2.15;1.60;;;22.40;40.00;;;;;;5023080;28;20022;-57
2023/06/05 12:42:01;;;;;;;1.50;1.40;;;22.40;40.50;;;;;;5027950;28;20064;-58
2023/06/05 12:44:26;;;;;;;1.55;1.45;;;22.40;40.80;;;;;;5025634;28;20021;-55
2023/06/05 12:46:52;;;;;;;1.30;1.20;;;22.40;40.90;;;;;;5025405;28;20401;-57
2023/06/05 12:49:17;;;;;;;2.20;1.50;;;22.40;41.00;;;;;;5016458;28;20163;-57
2023/06/05 12:51:43;;;;;;;1.92;1.67;;;22.40;40.80;;;;;;5023012;28;20025;-57